sensor_id;sensor_type;location;lat;lon;timestamp;P1;durP1;ratioP1;P2;durP2;ratioP2
45940;SDS011;31858;46.008;8.978;2023-04-25T00:10:02;0.85;;;0.70;;
45940;SDS011;31858;46.008;8.978;2023-04-25T00:20:04;1.65;;;0.85;;
45940;SDS011;31858;46.008;8.978;2023-04-25T00:30:11;1.17;;;0.88;;
45940;SDS011;31858;46.008;8.978;2023-04-25T00:40:14;1.90;;;0.80;;
45940;SDS011;31858;46.008;8.978;2023-04-25T00:50:16;5.20;;;0.82;;
45940;SDS011;31858;46.008;8.978;2023-04-25T01:00:18;3.70;;;0.88;;
45940;SDS011;31858;46.008;8.978;2023-04-25T01:10:23;0.93;;;0.75;;
45940;SDS011;31858;46.008;8.978;2023-04-25T01:20:25;3.70;;;0.85;;
45940;SDS011;31858;46.008;8.978;2023-04-25T01:30:29;3.67;;;1.17;;
45940;SDS011;31858;46.008;8.978;2023-04-25T01:40:31;2.40;;;0.88;;
45940;SDS011;31858;46.008;8.978;2023-04-25T01:50:36;0.93;;;0.63;;
45940;SDS011;31858;46.008;8.978;2023-04-25T02:00:38;3.90;;;1.50;;
45940;SDS011;31858;46.008;8.978;2023-04-25T02:10:42;0.95;;;0.70;;
45940;SDS011;31858;46.008;8.978;2023-04-25T02:20:43;3.15;;;0.73;;
45940;SDS011;31858;46.008;8.978;2023-04-25T02:30:47;1.45;;;0.80;;
45940;SDS011;31858;46.008;8.978;2023-04-25T02:40:49;2.30;;;0.82;;
45940;SDS011;31858;46.008;8.978;2023-04-25T02:50:52;1.75;;;1.00;;
45940;SDS011;31858;46.008;8.978;2023-04-25T03:00:53;1.83;;;1.00;;
45940;SDS011;31858;46.008;8.978;2023-04-25T03:10:56;0.85;;;0.73;;
45940;SDS011;31858;46.008;8.978;2023-04-25T03:20:58;1.52;;;0.95;;
45940;SDS011;31858;46.008;8.978;2023-04-25T03:31:01;2.60;;;0.90;;
45940;SDS011;31858;46.008;8.978;2023-04-25T03:41:03;1.55;;;0.80;;
45940;SDS011;31858;46.008;8.978;2023-04-25T03:51:06;2.78;;;0.98;;
45940;SDS011;31858;46.008;8.978;2023-04-25T04:01:07;0.93;;;0.82;;
45940;SDS011;31858;46.008;8.978;2023-04-25T04:11:11;2.20;;;1.00;;
45940;SDS011;31858;46.008;8.978;2023-04-25T04:21:12;0.63;;;0.52;;
45940;SDS011;31858;46.008;8.978;2023-04-25T04:31:16;1.77;;;0.90;;
45940;SDS011;31858;46.008;8.978;2023-04-25T04:41:19;3.65;;;1.35;;
45940;SDS011;31858;46.008;8.978;2023-04-25T04:51:22;4.07;;;0.90;;
45940;SDS011;31858;46.008;8.978;2023-04-25T05:01:24;1.45;;;1.02;;
45940;SDS011;31858;46.008;8.978;2023-04-25T05:11:27;1.77;;;1.00;;
45940;SDS011;31858;46.008;8.978;2023-04-25T05:21:29;0.82;;;0.77;;
45940;SDS011;31858;46.008;8.978;2023-04-25T05:31:32;2.63;;;0.95;;
45940;SDS011;31858;46.008;8.978;2023-04-25T05:41:35;0.73;;;0.60;;
45940;SDS011;31858;46.008;8.978;2023-04-25T05:51:38;2.55;;;1.30;;
45940;SDS011;31858;46.008;8.978;2023-04-25T06:01:40;0.80;;;0.80;;
45940;SDS011;31858;46.008;8.978;2023-04-25T06:11:43;1.25;;;0.90;;
45940;SDS011;31858;46.008;8.978;2023-04-25T06:21:45;4.47;;;1.05;;
45940;SDS011;31858;46.008;8.978;2023-04-25T06:31:48;1.75;;;1.02;;
45940;SDS011;31858;46.008;8.978;2023-04-25T06:41:49;4.07;;;1.42;;
45940;SDS011;31858;46.008;8.978;2023-04-25T06:51:52;1.75;;;1.10;;
45940;SDS011;31858;46.008;8.978;2023-04-25T07:01:54;0.70;;;0.70;;
45940;SDS011;31858;46.008;8.978;2023-04-25T07:11:57;2.58;;;1.30;;
45940;SDS011;31858;46.008;8.978;2023-04-25T07:21:59;1.45;;;1.33;;
45940;SDS011;31858;46.008;8.978;2023-04-25T07:32:02;2.63;;;1.27;;
45940;SDS011;31858;46.008;8.978;2023-04-25T07:42:04;3.20;;;1.67;;
45940;SDS011;31858;46.008;8.978;2023-04-25T07:52:09;1.98;;;1.00;;
45940;SDS011;31858;46.008;8.978;2023-04-25T08:02:10;3.40;;;1.50;;
45940;SDS011;31858;46.008;8.978;2023-04-25T08:12:13;5.28;;;1.30;;
45940;SDS011;31858;46.008;8.978;2023-04-25T08:22:15;1.17;;;1.08;;
45940;SDS011;31858;46.008;8.978;2023-04-25T08:32:18;4.07;;;1.20;;
45940;SDS011;31858;46.008;8.978;2023-04-25T08:42:21;4.28;;;1.38;;
45940;SDS011;31858;46.008;8.978;2023-04-25T08:52:24;2.97;;;1.40;;
45940;SDS011;31858;46.008;8.978;2023-04-25T09:02:31;2.17;;;1.17;;
45940;SDS011;31858;46.008;8.978;2023-04-25T09:12:35;3.53;;;1.42;;
45940;SDS011;31858;46.008;8.978;2023-04-25T09:22:37;1.33;;;1.20;;
45940;SDS011;31858;46.008;8.978;2023-04-25T09:32:41;2.17;;;1.20;;
45940;SDS011;31858;46.008;8.978;2023-04-25T09:42:44;2.17;;;1.30;;
45940;SDS011;31858;46.008;8.978;2023-04-25T09:52:47;1.73;;;1.25;;
45940;SDS011;31858;46.008;8.978;2023-04-25T10:03:04;2.45;;;1.33;;
45940;SDS011;31858;46.008;8.978;2023-04-25T10:13:08;2.88;;;1.20;;
45940;SDS011;31858;46.008;8.978;2023-04-25T10:23:11;1.33;;;0.80;;
45940;SDS011;31858;46.008;8.978;2023-04-25T10:33:17;1.58;;;0.80;;
45940;SDS011;31858;46.008;8.978;2023-04-25T10:43:37;0.77;;;0.77;;
45940;SDS011;31858;46.008;8.978;2023-04-25T10:53:41;0.77;;;0.70;;
45940;SDS011;31858;46.008;8.978;2023-04-25T11:03:45;2.10;;;0.50;;
45940;SDS011;31858;46.008;8.978;2023-04-25T11:13:49;1.45;;;0.50;;
45940;SDS011;31858;46.008;8.978;2023-04-25T11:23:51;1.75;;;0.50;;
45940;SDS011;31858;46.008;8.978;2023-04-25T11:33:56;1.05;;;0.50;;
45940;SDS011;31858;46.008;8.978;2023-04-25T11:43:58;1.45;;;0.70;;
45940;SDS011;31858;46.008;8.978;2023-04-25T11:54:01;1.60;;;0.68;;
45940;SDS011;31858;46.008;8.978;2023-04-25T12:04:12;0.20;;;0.20;;
45940;SDS011;31858;46.008;8.978;2023-04-25T12:14:21;0.20;;;0.20;;
45940;SDS011;31858;46.008;8.978;2023-04-25T12:34:28;0.45;;;0.22;;
45940;SDS011;31858;46.008;8.978;2023-04-25T12:44:31;0.93;;;0.50;;
45940;SDS011;31858;46.008;8.978;2023-04-25T12:54:34;0.40;;;0.30;;
45940;SDS011;31858;46.008;8.978;2023-04-25T13:04:36;2.30;;;0.50;;
45940;SDS011;31858;46.008;8.978;2023-04-25T13:14:39;0.43;;;0.40;;
45940;SDS011;31858;46.008;8.978;2023-04-25T13:24:40;0.32;;;0.32;;
45940;SDS011;31858;46.008;8.978;2023-04-25T13:34:43;1.77;;;0.50;;
45940;SDS011;31858;46.008;8.978;2023-04-25T13:44:45;1.70;;;0.52;;
45940;SDS011;31858;46.008;8.978;2023-04-25T13:54:48;1.63;;;0.68;;
45940;SDS011;31858;46.008;8.978;2023-04-25T14:04:49;0.63;;;0.45;;
45940;SDS011;31858;46.008;8.978;2023-04-25T14:14:52;0.52;;;0.50;;
45940;SDS011;31858;46.008;8.978;2023-04-25T14:24:54;1.52;;;0.85;;
45940;SDS011;31858;46.008;8.978;2023-04-25T14:34:57;0.55;;;0.38;;
45940;SDS011;31858;46.008;8.978;2023-04-25T14:44:59;2.13;;;0.88;;
45940;SDS011;31858;46.008;8.978;2023-04-25T14:55:02;1.67;;;0.70;;
45940;SDS011;31858;46.008;8.978;2023-04-25T15:05:05;1.05;;;0.80;;
45940;SDS011;31858;46.008;8.978;2023-04-25T15:15:10;3.10;;;0.70;;
45940;SDS011;31858;46.008;8.978;2023-04-25T15:25:12;0.77;;;0.77;;
45940;SDS011;31858;46.008;8.978;2023-04-25T15:35:15;1.38;;;0.75;;
45940;SDS011;31858;46.008;8.978;2023-04-25T15:45:17;2.53;;;0.60;;
45940;SDS011;31858;46.008;8.978;2023-04-25T15:55:21;0.82;;;0.50;;
45940;SDS011;31858;46.008;8.978;2023-04-25T16:05:25;0.65;;;0.60;;
45940;SDS011;31858;46.008;8.978;2023-04-25T16:15:28;0.65;;;0.63;;
45940;SDS011;31858;46.008;8.978;2023-04-25T16:25:31;1.42;;;0.60;;
45940;SDS011;31858;46.008;8.978;2023-04-25T16:35:34;2.67;;;0.52;;
45940;SDS011;31858;46.008;8.978;2023-04-25T16:45:35;0.57;;;0.47;;
45940;SDS011;31858;46.008;8.978;2023-04-25T16:55:38;0.50;;;0.50;;
45940;SDS011;31858;46.008;8.978;2023-04-25T17:05:40;1.20;;;0.60;;
45940;SDS011;31858;46.008;8.978;2023-04-25T17:15:43;0.73;;;0.38;;
45940;SDS011;31858;46.008;8.978;2023-04-25T17:25:45;1.05;;;0.40;;
45940;SDS011;31858;46.008;8.978;2023-04-25T17:35:48;1.95;;;0.50;;
45940;SDS011;31858;46.008;8.978;2023-04-25T17:45:49;1.17;;;0.47;;
45940;SDS011;31858;46.008;8.978;2023-04-25T17:55:52;0.85;;;0.55;;
45940;SDS011;31858;46.008;8.978;2023-04-25T18:05:55;0.63;;;0.43;;
45940;SDS011;31858;46.008;8.978;2023-04-25T18:15:58;1.17;;;0.32;;
45940;SDS011;31858;46.008;8.978;2023-04-25T18:25:59;3.20;;;0.60;;
45940;SDS011;31858;46.008;8.978;2023-04-25T18:36:04;1.15;;;0.63;;
45940;SDS011;31858;46.008;8.978;2023-04-25T18:46:07;2.20;;;0.40;;
45940;SDS011;31858;46.008;8.978;2023-04-25T18:56:10;1.08;;;0.57;;
45940;SDS011;31858;46.008;8.978;2023-04-25T19:06:12;2.20;;;0.77;;
45940;SDS011;31858;46.008;8.978;2023-04-25T19:16:16;1.50;;;0.50;;
45940;SDS011;31858;46.008;8.978;2023-04-25T19:26:21;3.75;;;0.70;;
45940;SDS011;31858;46.008;8.978;2023-04-25T19:36:24;2.25;;;0.63;;
45940;SDS011;31858;46.008;8.978;2023-04-25T19:46:26;0.77;;;0.60;;
45940;SDS011;31858;46.008;8.978;2023-04-25T19:56:29;0.60;;;0.60;;
45940;SDS011;31858;46.008;8.978;2023-04-25T20:06:32;0.95;;;0.63;;
45940;SDS011;31858;46.008;8.978;2023-04-25T20:16:35;0.98;;;0.35;;
45940;SDS011;31858;46.008;8.978;2023-04-25T20:26:37;1.17;;;0.60;;
45940;SDS011;31858;46.008;8.978;2023-04-25T20:36:40;0.80;;;0.52;;
45940;SDS011;31858;46.008;8.978;2023-04-25T20:46:42;0.30;;;0.30;;
45940;SDS011;31858;46.008;8.978;2023-04-25T20:56:44;0.65;;;0.50;;
45940;SDS011;31858;46.008;8.978;2023-04-25T21:06:46;0.40;;;0.30;;
45940;SDS011;31858;46.008;8.978;2023-04-25T21:16:49;1.33;;;0.38;;
45940;SDS011;31858;46.008;8.978;2023-04-25T21:26:51;1.00;;;0.40;;
45940;SDS011;31858;46.008;8.978;2023-04-25T21:36:54;1.98;;;0.50;;
45940;SDS011;31858;46.008;8.978;2023-04-25T21:46:55;3.50;;;0.40;;
45940;SDS011;31858;46.008;8.978;2023-04-25T21:56:58;1.55;;;0.40;;
45940;SDS011;31858;46.008;8.978;2023-04-25T22:07:00;0.73;;;0.40;;
45940;SDS011;31858;46.008;8.978;2023-04-25T22:17:03;0.43;;;0.40;;
45940;SDS011;31858;46.008;8.978;2023-04-25T22:27:05;5.65;;;0.50;;
45940;SDS011;31858;46.008;8.978;2023-04-25T22:37:08;1.63;;;0.70;;
45940;SDS011;31858;46.008;8.978;2023-04-25T22:47:10;0.30;;;0.30;;
45940;SDS011;31858;46.008;8.978;2023-04-25T22:57:13;1.00;;;0.43;;
45940;SDS011;31858;46.008;8.978;2023-04-25T23:07:15;0.45;;;0.30;;
45940;SDS011;31858;46.008;8.978;2023-04-25T23:17:18;0.52;;;0.20;;
45940;SDS011;31858;46.008;8.978;2023-04-25T23:27:20;1.20;;;0.60;;
45940;SDS011;31858;46.008;8.978;2023-04-25T23:37:23;3.55;;;0.80;;
45940;SDS011;31858;46.008;8.978;2023-04-25T23:47:24;0.32;;;0.30;;
45940;SDS011;31858;46.008;8.978;2023-04-25T23:57:27;0.50;;;0.40;;
